sensor_id;sensor_type;location;lat;lon;timestamp;P1;durP1;ratioP1;P2;durP2;ratioP2
39050;SDS011;24805;55.852;37.644;2024-02-28T00:01:54;9.63;;;4.05;;
39050;SDS011;24805;55.852;37.644;2024-02-28T00:06:57;9.90;;;4.30;;
39050;SDS011;24805;55.852;37.644;2024-02-28T00:12:00;7.68;;;4.10;;
39050;SDS011;24805;55.852;37.644;2024-02-28T00:17:02;10.60;;;4.38;;
39050;SDS011;24805;55.852;37.644;2024-02-28T00:22:05;9.85;;;3.67;;
39050;SDS011;24805;55.852;37.644;2024-02-28T00:27:07;10.15;;;4.13;;
39050;SDS011;24805;55.852;37.644;2024-02-28T00:32:09;12.15;;;5.05;;
39050;SDS011;24805;55.852;37.644;2024-02-28T00:37:12;11.82;;;4.38;;
39050;SDS011;24805;55.852;37.644;2024-02-28T00:42:14;7.25;;;3.85;;
39050;SDS011;24805;55.852;37.644;2024-02-28T00:47:17;10.48;;;4.72;;
39050;SDS011;24805;55.852;37.644;2024-02-28T00:52:19;8.25;;;3.03;;
39050;SDS011;24805;55.852;37.644;2024-02-28T00:57:22;9.70;;;4.47;;
39050;SDS011;24805;55.852;37.644;2024-02-28T01:02:24;9.38;;;4.53;;
39050;SDS011;24805;55.852;37.644;2024-02-28T01:07:26;11.15;;;4.22;;
39050;SDS011;24805;55.852;37.644;2024-02-28T01:12:29;9.20;;;3.30;;
39050;SDS011;24805;55.852;37.644;2024-02-28T01:17:31;15.75;;;5.47;;
39050;SDS011;24805;55.852;37.644;2024-02-28T01:22:34;9.10;;;4.93;;
39050;SDS011;24805;55.852;37.644;2024-02-28T01:27:37;8.98;;;3.80;;
39050;SDS011;24805;55.852;37.644;2024-02-28T01:32:39;8.07;;;4.28;;
39050;SDS011;24805;55.852;37.644;2024-02-28T01:37:41;9.23;;;4.00;;
39050;SDS011;24805;55.852;37.644;2024-02-28T01:42:43;8.63;;;4.00;;
39050;SDS011;24805;55.852;37.644;2024-02-28T01:47:46;9.45;;;3.92;;
39050;SDS011;24805;55.852;37.644;2024-02-28T01:52:48;13.57;;;4.30;;
39050;SDS011;24805;55.852;37.644;2024-02-28T01:57:52;10.55;;;4.60;;
39050;SDS011;24805;55.852;37.644;2024-02-28T02:02:55;10.90;;;4.93;;
39050;SDS011;24805;55.852;37.644;2024-02-28T02:07:57;11.57;;;5.03;;
39050;SDS011;24805;55.852;37.644;2024-02-28T02:13:04;9.48;;;4.75;;
39050;SDS011;24805;55.852;37.644;2024-02-28T02:18:09;13.20;;;5.45;;
39050;SDS011;24805;55.852;37.644;2024-02-28T02:23:12;14.35;;;4.75;;
39050;SDS011;24805;55.852;37.644;2024-02-28T02:28:16;10.95;;;4.97;;
39050;SDS011;24805;55.852;37.644;2024-02-28T02:33:18;9.40;;;4.78;;
39050;SDS011;24805;55.852;37.644;2024-02-28T02:38:21;12.05;;;4.82;;
39050;SDS011;24805;55.852;37.644;2024-02-28T02:43:23;11.23;;;4.75;;
39050;SDS011;24805;55.852;37.644;2024-02-28T02:48:25;8.95;;;4.55;;
39050;SDS011;24805;55.852;37.644;2024-02-28T02:53:27;12.00;;;5.03;;
39050;SDS011;24805;55.852;37.644;2024-02-28T02:58:30;11.95;;;4.75;;
39050;SDS011;24805;55.852;37.644;2024-02-28T03:03:32;12.90;;;4.93;;
39050;SDS011;24805;55.852;37.644;2024-02-28T03:08:34;12.27;;;4.60;;
39050;SDS011;24805;55.852;37.644;2024-02-28T03:13:37;11.15;;;5.90;;
39050;SDS011;24805;55.852;37.644;2024-02-28T03:18:39;12.75;;;5.65;;
39050;SDS011;24805;55.852;37.644;2024-02-28T03:23:41;11.68;;;5.28;;
39050;SDS011;24805;55.852;37.644;2024-02-28T03:28:44;10.02;;;4.65;;
39050;SDS011;24805;55.852;37.644;2024-02-28T03:33:46;10.93;;;5.05;;
39050;SDS011;24805;55.852;37.644;2024-02-28T03:38:49;13.18;;;5.03;;
39050;SDS011;24805;55.852;37.644;2024-02-28T03:43:51;14.88;;;5.20;;
39050;SDS011;24805;55.852;37.644;2024-02-28T03:48:53;11.25;;;4.40;;
39050;SDS011;24805;55.852;37.644;2024-02-28T03:53:55;13.80;;;4.97;;
39050;SDS011;24805;55.852;37.644;2024-02-28T03:58:58;11.75;;;4.60;;
39050;SDS011;24805;55.852;37.644;2024-02-28T04:04:00;15.15;;;5.53;;
39050;SDS011;24805;55.852;37.644;2024-02-28T04:09:02;14.13;;;5.15;;
39050;SDS011;24805;55.852;37.644;2024-02-28T04:14:05;13.02;;;7.45;;
39050;SDS011;24805;55.852;37.644;2024-02-28T04:19:08;11.73;;;3.22;;
39050;SDS011;24805;55.852;37.644;2024-02-28T04:24:10;13.93;;;5.93;;
39050;SDS011;24805;55.852;37.644;2024-02-28T04:29:15;13.45;;;6.35;;
39050;SDS011;24805;55.852;37.644;2024-02-28T04:34:17;10.77;;;5.65;;
39050;SDS011;24805;55.852;37.644;2024-02-28T04:39:19;17.70;;;5.85;;
39050;SDS011;24805;55.852;37.644;2024-02-28T04:44:21;11.15;;;5.22;;
39050;SDS011;24805;55.852;37.644;2024-02-28T04:49:23;15.95;;;5.22;;
39050;SDS011;24805;55.852;37.644;2024-02-28T04:54:26;12.00;;;5.50;;
39050;SDS011;24805;55.852;37.644;2024-02-28T04:59:28;10.18;;;4.97;;
39050;SDS011;24805;55.852;37.644;2024-02-28T05:04:30;12.38;;;6.15;;
39050;SDS011;24805;55.852;37.644;2024-02-28T05:09:33;11.32;;;5.05;;
39050;SDS011;24805;55.852;37.644;2024-02-28T05:14:35;11.65;;;5.45;;
39050;SDS011;24805;55.852;37.644;2024-02-28T05:19:38;13.55;;;5.50;;
39050;SDS011;24805;55.852;37.644;2024-02-28T05:24:41;12.07;;;4.53;;
39050;SDS011;24805;55.852;37.644;2024-02-28T05:29:45;15.63;;;5.20;;
39050;SDS011;24805;55.852;37.644;2024-02-28T05:34:47;10.75;;;5.10;;
39050;SDS011;24805;55.852;37.644;2024-02-28T05:39:49;10.45;;;4.80;;
39050;SDS011;24805;55.852;37.644;2024-02-28T05:44:52;13.57;;;5.97;;
39050;SDS011;24805;55.852;37.644;2024-02-28T05:49:54;14.25;;;5.80;;
39050;SDS011;24805;55.852;37.644;2024-02-28T05:54:57;13.88;;;5.32;;
39050;SDS011;24805;55.852;37.644;2024-02-28T06:00:00;12.27;;;6.05;;
39050;SDS011;24805;55.852;37.644;2024-02-28T06:05:12;11.80;;;6.15;;
39050;SDS011;24805;55.852;37.644;2024-02-28T06:10:14;11.05;;;6.00;;
39050;SDS011;24805;55.852;37.644;2024-02-28T06:15:16;12.30;;;5.57;;
39050;SDS011;24805;55.852;37.644;2024-02-28T06:20:18;12.75;;;6.55;;
39050;SDS011;24805;55.852;37.644;2024-02-28T06:25:21;12.02;;;6.35;;
39050;SDS011;24805;55.852;37.644;2024-02-28T06:30:25;11.45;;;6.20;;
39050;SDS011;24805;55.852;37.644;2024-02-28T06:35:27;13.02;;;6.05;;
39050;SDS011;24805;55.852;37.644;2024-02-28T06:40:31;10.73;;;6.28;;
39050;SDS011;24805;55.852;37.644;2024-02-28T06:45:34;8.27;;;4.05;;
39050;SDS011;24805;55.852;37.644;2024-02-28T06:50:37;11.80;;;5.68;;
39050;SDS011;24805;55.852;37.644;2024-02-28T06:55:39;13.40;;;6.45;;
39050;SDS011;24805;55.852;37.644;2024-02-28T07:00:42;12.60;;;6.43;;
39050;SDS011;24805;55.852;37.644;2024-02-28T07:05:45;14.43;;;6.65;;
39050;SDS011;24805;55.852;37.644;2024-02-28T07:10:47;11.15;;;6.40;;
39050;SDS011;24805;55.852;37.644;2024-02-28T07:15:55;13.43;;;6.75;;
39050;SDS011;24805;55.852;37.644;2024-02-28T07:20:59;16.38;;;7.22;;
39050;SDS011;24805;55.852;37.644;2024-02-28T07:26:02;12.75;;;6.70;;
39050;SDS011;24805;55.852;37.644;2024-02-28T07:31:19;13.68;;;6.80;;
39050;SDS011;24805;55.852;37.644;2024-02-28T07:36:21;14.75;;;7.00;;
39050;SDS011;24805;55.852;37.644;2024-02-28T07:41:24;11.57;;;6.47;;
39050;SDS011;24805;55.852;37.644;2024-02-28T07:46:26;17.27;;;7.50;;
39050;SDS011;24805;55.852;37.644;2024-02-28T07:51:29;9.93;;;5.68;;
39050;SDS011;24805;55.852;37.644;2024-02-28T07:56:31;11.15;;;6.50;;
39050;SDS011;24805;55.852;37.644;2024-02-28T08:01:34;12.88;;;7.00;;
39050;SDS011;24805;55.852;37.644;2024-02-28T08:06:36;13.00;;;6.05;;
39050;SDS011;24805;55.852;37.644;2024-02-28T08:11:39;14.25;;;6.45;;
39050;SDS011;24805;55.852;37.644;2024-02-28T08:16:41;12.38;;;6.07;;
39050;SDS011;24805;55.852;37.644;2024-02-28T08:21:44;13.25;;;6.35;;
39050;SDS011;24805;55.852;37.644;2024-02-28T08:26:46;12.50;;;5.85;;
39050;SDS011;24805;55.852;37.644;2024-02-28T08:31:48;14.13;;;6.18;;
39050;SDS011;24805;55.852;37.644;2024-02-28T08:36:51;12.35;;;6.70;;
39050;SDS011;24805;55.852;37.644;2024-02-28T08:41:53;17.00;;;6.05;;
39050;SDS011;24805;55.852;37.644;2024-02-28T08:46:56;10.35;;;6.30;;
39050;SDS011;24805;55.852;37.644;2024-02-28T08:51:58;11.63;;;6.13;;
39050;SDS011;24805;55.852;37.644;2024-02-28T08:57:01;11.18;;;6.22;;
39050;SDS011;24805;55.852;37.644;2024-02-28T09:02:05;10.48;;;6.20;;
39050;SDS011;24805;55.852;37.644;2024-02-28T09:07:08;10.85;;;6.03;;
39050;SDS011;24805;55.852;37.644;2024-02-28T09:12:12;15.27;;;6.38;;
39050;SDS011;24805;55.852;37.644;2024-02-28T09:17:15;11.52;;;5.72;;
39050;SDS011;24805;55.852;37.644;2024-02-28T09:22:17;15.95;;;7.00;;
39050;SDS011;24805;55.852;37.644;2024-02-28T09:27:19;9.63;;;6.18;;
39050;SDS011;24805;55.852;37.644;2024-02-28T09:32:22;9.10;;;5.90;;
39050;SDS011;24805;55.852;37.644;2024-02-28T09:37:25;14.13;;;6.50;;
39050;SDS011;24805;55.852;37.644;2024-02-28T09:42:27;13.25;;;6.65;;
39050;SDS011;24805;55.852;37.644;2024-02-28T09:47:30;13.00;;;7.07;;
39050;SDS011;24805;55.852;37.644;2024-02-28T09:52:32;11.90;;;6.25;;
39050;SDS011;24805;55.852;37.644;2024-02-28T09:57:35;11.55;;;6.50;;
39050;SDS011;24805;55.852;37.644;2024-02-28T10:02:38;11.73;;;6.18;;
39050;SDS011;24805;55.852;37.644;2024-02-28T10:07:42;10.02;;;6.05;;
39050;SDS011;24805;55.852;37.644;2024-02-28T10:12:45;10.60;;;6.05;;
39050;SDS011;24805;55.852;37.644;2024-02-28T10:17:47;9.25;;;6.28;;
39050;SDS011;24805;55.852;37.644;2024-02-28T10:22:51;14.02;;;5.72;;
39050;SDS011;24805;55.852;37.644;2024-02-28T10:27:58;11.57;;;5.80;;
39050;SDS011;24805;55.852;37.644;2024-02-28T10:33:02;11.38;;;6.35;;
39050;SDS011;24805;55.852;37.644;2024-02-28T10:38:04;11.52;;;6.45;;
39050;SDS011;24805;55.852;37.644;2024-02-28T10:43:08;9.38;;;6.32;;
39050;SDS011;24805;55.852;37.644;2024-02-28T10:48:13;10.55;;;6.95;;
39050;SDS011;24805;55.852;37.644;2024-02-28T10:53:20;15.10;;;7.55;;
39050;SDS011;24805;55.852;37.644;2024-02-28T10:58:25;11.55;;;6.95;;
39050;SDS011;24805;55.852;37.644;2024-02-28T11:03:35;10.35;;;6.40;;
39050;SDS011;24805;55.852;37.644;2024-02-28T11:08:38;8.77;;;5.70;;
39050;SDS011;24805;55.852;37.644;2024-02-28T11:13:41;10.55;;;6.72;;
39050;SDS011;24805;55.852;37.644;2024-02-28T11:18:54;13.18;;;7.05;;
39050;SDS011;24805;55.852;37.644;2024-02-28T11:24:02;11.40;;;7.07;;
39050;SDS011;24805;55.852;37.644;2024-02-28T11:29:06;11.13;;;7.15;;
39050;SDS011;24805;55.852;37.644;2024-02-28T11:34:09;11.68;;;6.55;;
39050;SDS011;24805;55.852;37.644;2024-02-28T11:39:12;13.82;;;7.18;;
39050;SDS011;24805;55.852;37.644;2024-02-28T11:44:15;12.57;;;7.15;;
39050;SDS011;24805;55.852;37.644;2024-02-28T11:49:18;12.55;;;7.57;;
39050;SDS011;24805;55.852;37.644;2024-02-28T11:54:21;13.02;;;8.43;;
39050;SDS011;24805;55.852;37.644;2024-02-28T11:59:23;14.45;;;7.85;;
39050;SDS011;24805;55.852;37.644;2024-02-28T12:04:25;15.57;;;7.00;;
39050;SDS011;24805;55.852;37.644;2024-02-28T12:09:27;11.73;;;7.03;;
39050;SDS011;24805;55.852;37.644;2024-02-28T12:14:43;15.63;;;7.63;;
39050;SDS011;24805;55.852;37.644;2024-02-28T12:19:45;16.67;;;7.20;;
39050;SDS011;24805;55.852;37.644;2024-02-28T12:24:47;11.63;;;6.82;;
39050;SDS011;24805;55.852;37.644;2024-02-28T12:29:50;14.27;;;6.95;;
39050;SDS011;24805;55.852;37.644;2024-02-28T12:34:52;16.58;;;6.82;;
39050;SDS011;24805;55.852;37.644;2024-02-28T12:39:55;13.32;;;6.97;;
39050;SDS011;24805;55.852;37.644;2024-02-28T12:44:58;13.20;;;6.93;;
39050;SDS011;24805;55.852;37.644;2024-02-28T12:50:00;13.55;;;6.40;;
39050;SDS011;24805;55.852;37.644;2024-02-28T12:55:04;12.70;;;6.85;;
39050;SDS011;24805;55.852;37.644;2024-02-28T13:00:07;12.85;;;6.85;;
39050;SDS011;24805;55.852;37.644;2024-02-28T13:05:11;18.77;;;8.35;;
39050;SDS011;24805;55.852;37.644;2024-02-28T13:10:15;18.23;;;6.95;;
39050;SDS011;24805;55.852;37.644;2024-02-28T13:15:18;12.80;;;7.20;;
39050;SDS011;24805;55.852;37.644;2024-02-28T13:20:21;16.48;;;7.28;;
39050;SDS011;24805;55.852;37.644;2024-02-28T13:25:23;17.05;;;7.88;;
39050;SDS011;24805;55.852;37.644;2024-02-28T13:30:25;20.85;;;9.02;;
39050;SDS011;24805;55.852;37.644;2024-02-28T13:35:27;19.67;;;9.63;;
39050;SDS011;24805;55.852;37.644;2024-02-28T13:40:30;18.10;;;9.15;;
39050;SDS011;24805;55.852;37.644;2024-02-28T13:45:32;18.27;;;8.25;;
39050;SDS011;24805;55.852;37.644;2024-02-28T13:50:34;21.25;;;9.20;;
39050;SDS011;24805;55.852;37.644;2024-02-28T13:55:37;23.70;;;9.27;;
39050;SDS011;24805;55.852;37.644;2024-02-28T14:00:40;18.05;;;8.73;;
39050;SDS011;24805;55.852;37.644;2024-02-28T14:05:42;19.23;;;8.98;;
39050;SDS011;24805;55.852;37.644;2024-02-28T14:10:45;15.55;;;8.05;;
39050;SDS011;24805;55.852;37.644;2024-02-28T14:15:47;17.23;;;8.50;;
39050;SDS011;24805;55.852;37.644;2024-02-28T14:20:52;13.60;;;8.40;;
39050;SDS011;24805;55.852;37.644;2024-02-28T14:25:55;16.58;;;7.47;;
39050;SDS011;24805;55.852;37.644;2024-02-28T14:30:58;17.25;;;8.15;;
39050;SDS011;24805;55.852;37.644;2024-02-28T14:36:00;17.88;;;8.85;;
39050;SDS011;24805;55.852;37.644;2024-02-28T14:41:05;17.77;;;7.53;;
39050;SDS011;24805;55.852;37.644;2024-02-28T14:46:09;20.60;;;8.35;;
39050;SDS011;24805;55.852;37.644;2024-02-28T14:51:12;16.02;;;8.10;;
39050;SDS011;24805;55.852;37.644;2024-02-28T14:56:14;17.00;;;6.50;;
39050;SDS011;24805;55.852;37.644;2024-02-28T15:01:18;17.65;;;7.85;;
39050;SDS011;24805;55.852;37.644;2024-02-28T15:06:21;14.55;;;8.60;;
39050;SDS011;24805;55.852;37.644;2024-02-28T15:11:23;16.13;;;8.05;;
39050;SDS011;24805;55.852;37.644;2024-02-28T15:16:26;25.70;;;9.50;;
39050;SDS011;24805;55.852;37.644;2024-02-28T15:21:28;20.98;;;8.80;;
39050;SDS011;24805;55.852;37.644;2024-02-28T15:26:31;19.52;;;9.00;;
39050;SDS011;24805;55.852;37.644;2024-02-28T15:31:46;22.30;;;9.75;;
39050;SDS011;24805;55.852;37.644;2024-02-28T15:36:49;21.92;;;8.55;;
39050;SDS011;24805;55.852;37.644;2024-02-28T15:41:51;19.30;;;9.02;;
39050;SDS011;24805;55.852;37.644;2024-02-28T15:46:54;19.73;;;9.38;;
39050;SDS011;24805;55.852;37.644;2024-02-28T15:51:57;17.27;;;7.97;;
39050;SDS011;24805;55.852;37.644;2024-02-28T15:57:00;18.00;;;8.55;;
39050;SDS011;24805;55.852;37.644;2024-02-28T16:02:02;15.02;;;6.82;;
39050;SDS011;24805;55.852;37.644;2024-02-28T16:07:05;12.52;;;6.32;;
39050;SDS011;24805;55.852;37.644;2024-02-28T16:12:09;14.80;;;5.93;;
39050;SDS011;24805;55.852;37.644;2024-02-28T16:17:11;15.25;;;5.90;;
39050;SDS011;24805;55.852;37.644;2024-02-28T16:22:18;13.63;;;6.05;;
39050;SDS011;24805;55.852;37.644;2024-02-28T16:27:22;11.50;;;5.55;;
39050;SDS011;24805;55.852;37.644;2024-02-28T16:32:26;16.20;;;7.90;;
39050;SDS011;24805;55.852;37.644;2024-02-28T16:37:28;11.32;;;5.72;;
39050;SDS011;24805;55.852;37.644;2024-02-28T16:42:30;15.75;;;6.65;;
39050;SDS011;24805;55.852;37.644;2024-02-28T16:47:34;11.27;;;5.90;;
39050;SDS011;24805;55.852;37.644;2024-02-28T16:52:36;11.95;;;6.10;;
39050;SDS011;24805;55.852;37.644;2024-02-28T16:57:39;13.98;;;5.68;;
39050;SDS011;24805;55.852;37.644;2024-02-28T17:02:43;12.13;;;5.47;;
39050;SDS011;24805;55.852;37.644;2024-02-28T17:07:45;17.52;;;6.07;;
39050;SDS011;24805;55.852;37.644;2024-02-28T17:12:47;11.00;;;5.65;;
39050;SDS011;24805;55.852;37.644;2024-02-28T17:17:50;14.15;;;5.88;;
39050;SDS011;24805;55.852;37.644;2024-02-28T17:22:52;10.75;;;6.70;;
39050;SDS011;24805;55.852;37.644;2024-02-28T17:27:54;10.27;;;5.80;;
39050;SDS011;24805;55.852;37.644;2024-02-28T17:32:57;12.88;;;6.32;;
39050;SDS011;24805;55.852;37.644;2024-02-28T17:37:59;13.23;;;6.53;;
39050;SDS011;24805;55.852;37.644;2024-02-28T17:43:01;16.42;;;6.18;;
39050;SDS011;24805;55.852;37.644;2024-02-28T17:48:06;11.90;;;5.47;;
39050;SDS011;24805;55.852;37.644;2024-02-28T17:53:09;11.88;;;6.47;;
39050;SDS011;24805;55.852;37.644;2024-02-28T17:58:11;10.52;;;5.03;;
39050;SDS011;24805;55.852;37.644;2024-02-28T18:03:13;14.05;;;6.22;;
39050;SDS011;24805;55.852;37.644;2024-02-28T18:08:16;8.90;;;5.40;;
39050;SDS011;24805;55.852;37.644;2024-02-28T18:13:18;11.98;;;5.70;;
39050;SDS011;24805;55.852;37.644;2024-02-28T18:18:23;11.40;;;4.68;;
39050;SDS011;24805;55.852;37.644;2024-02-28T18:23:25;13.52;;;5.22;;
39050;SDS011;24805;55.852;37.644;2024-02-28T18:28:35;9.23;;;4.35;;
39050;SDS011;24805;55.852;37.644;2024-02-28T18:33:40;11.80;;;4.97;;
39050;SDS011;24805;55.852;37.644;2024-02-28T18:38:43;11.88;;;4.13;;
39050;SDS011;24805;55.852;37.644;2024-02-28T18:43:45;11.57;;;4.70;;
39050;SDS011;24805;55.852;37.644;2024-02-28T18:49:06;16.70;;;5.50;;
39050;SDS011;24805;55.852;37.644;2024-02-28T18:54:09;15.05;;;5.22;;
39050;SDS011;24805;55.852;37.644;2024-02-28T18:59:11;13.80;;;6.40;;
39050;SDS011;24805;55.852;37.644;2024-02-28T19:04:14;13.70;;;5.07;;
39050;SDS011;24805;55.852;37.644;2024-02-28T19:09:16;11.07;;;4.57;;
39050;SDS011;24805;55.852;37.644;2024-02-28T19:14:19;10.48;;;4.75;;
39050;SDS011;24805;55.852;37.644;2024-02-28T19:19:21;14.45;;;4.75;;
39050;SDS011;24805;55.852;37.644;2024-02-28T19:24:24;9.55;;;4.03;;
39050;SDS011;24805;55.852;37.644;2024-02-28T19:29:26;9.02;;;4.88;;
39050;SDS011;24805;55.852;37.644;2024-02-28T19:34:30;9.02;;;4.05;;
39050;SDS011;24805;55.852;37.644;2024-02-28T19:39:32;9.73;;;3.88;;
39050;SDS011;24805;55.852;37.644;2024-02-28T19:44:35;7.95;;;4.22;;
39050;SDS011;24805;55.852;37.644;2024-02-28T19:49:37;13.93;;;3.80;;
39050;SDS011;24805;55.852;37.644;2024-02-28T19:54:39;7.03;;;3.17;;
39050;SDS011;24805;55.852;37.644;2024-02-28T19:59:42;9.27;;;3.83;;
39050;SDS011;24805;55.852;37.644;2024-02-28T20:04:44;9.25;;;3.55;;
39050;SDS011;24805;55.852;37.644;2024-02-28T20:09:47;7.38;;;3.13;;
39050;SDS011;24805;55.852;37.644;2024-02-28T20:14:50;9.25;;;3.38;;
39050;SDS011;24805;55.852;37.644;2024-02-28T20:19:52;10.30;;;3.38;;
39050;SDS011;24805;55.852;37.644;2024-02-28T20:24:54;7.43;;;3.03;;
39050;SDS011;24805;55.852;37.644;2024-02-28T20:29:57;9.27;;;3.35;;
39050;SDS011;24805;55.852;37.644;2024-02-28T20:34:59;10.57;;;3.60;;
39050;SDS011;24805;55.852;37.644;2024-02-28T20:40:02;9.88;;;3.45;;
39050;SDS011;24805;55.852;37.644;2024-02-28T20:45:06;12.75;;;4.13;;
39050;SDS011;24805;55.852;37.644;2024-02-28T20:50:09;10.60;;;3.13;;
39050;SDS011;24805;55.852;37.644;2024-02-28T20:55:12;8.38;;;3.25;;
39050;SDS011;24805;55.852;37.644;2024-02-28T21:00:15;10.30;;;3.53;;
39050;SDS011;24805;55.852;37.644;2024-02-28T21:05:17;11.63;;;3.20;;
39050;SDS011;24805;55.852;37.644;2024-02-28T21:10:20;11.25;;;3.45;;
39050;SDS011;24805;55.852;37.644;2024-02-28T21:15:23;11.93;;;4.00;;
39050;SDS011;24805;55.852;37.644;2024-02-28T21:20:26;8.77;;;4.05;;
39050;SDS011;24805;55.852;37.644;2024-02-28T21:25:30;7.85;;;3.05;;
39050;SDS011;24805;55.852;37.644;2024-02-28T21:30:32;9.05;;;3.70;;
39050;SDS011;24805;55.852;37.644;2024-02-28T21:35:35;7.82;;;2.80;;
39050;SDS011;24805;55.852;37.644;2024-02-28T21:40:44;9.82;;;4.35;;
39050;SDS011;24805;55.852;37.644;2024-02-28T21:45:46;15.95;;;3.45;;
39050;SDS011;24805;55.852;37.644;2024-02-28T21:50:48;12.27;;;3.47;;
39050;SDS011;24805;55.852;37.644;2024-02-28T21:55:50;8.43;;;3.05;;
39050;SDS011;24805;55.852;37.644;2024-02-28T22:00:53;15.73;;;3.30;;
39050;SDS011;24805;55.852;37.644;2024-02-28T22:05:56;8.98;;;2.90;;
39050;SDS011;24805;55.852;37.644;2024-02-28T22:11:17;11.37;;;3.50;;
39050;SDS011;24805;55.852;37.644;2024-02-28T22:16:19;12.07;;;3.40;;
39050;SDS011;24805;55.852;37.644;2024-02-28T22:21:21;16.33;;;3.47;;
39050;SDS011;24805;55.852;37.644;2024-02-28T22:26:24;11.18;;;2.97;;
39050;SDS011;24805;55.852;37.644;2024-02-28T22:31:27;10.98;;;2.47;;
39050;SDS011;24805;55.852;37.644;2024-02-28T22:36:30;8.98;;;3.15;;
39050;SDS011;24805;55.852;37.644;2024-02-28T22:41:35;7.60;;;3.20;;
39050;SDS011;24805;55.852;37.644;2024-02-28T22:46:37;12.70;;;3.15;;
39050;SDS011;24805;55.852;37.644;2024-02-28T22:51:39;10.00;;;3.10;;
39050;SDS011;24805;55.852;37.644;2024-02-28T22:56:42;11.20;;;3.75;;
39050;SDS011;24805;55.852;37.644;2024-02-28T23:01:44;9.10;;;3.22;;
39050;SDS011;24805;55.852;37.644;2024-02-28T23:06:47;9.80;;;3.33;;
39050;SDS011;24805;55.852;37.644;2024-02-28T23:11:49;13.52;;;3.08;;
39050;SDS011;24805;55.852;37.644;2024-02-28T23:16:52;9.65;;;3.03;;
39050;SDS011;24805;55.852;37.644;2024-02-28T23:21:55;18.70;;;3.88;;
39050;SDS011;24805;55.852;37.644;2024-02-28T23:26:58;12.02;;;3.67;;
39050;SDS011;24805;55.852;37.644;2024-02-28T23:32:00;16.00;;;3.53;;
39050;SDS011;24805;55.852;37.644;2024-02-28T23:37:03;10.52;;;3.13;;
39050;SDS011;24805;55.852;37.644;2024-02-28T23:42:05;8.23;;;3.10;;
39050;SDS011;24805;55.852;37.644;2024-02-28T23:47:08;13.15;;;3.80;;
39050;SDS011;24805;55.852;37.644;2024-02-28T23:52:10;12.48;;;4.18;;
39050;SDS011;24805;55.852;37.644;2024-02-28T23:57:13;7.70;;;3.55;;
